createdAt,value
2024-05-09T00:04:49.507Z,11.57
2024-05-09T00:09:55.595Z,14.27
2024-05-09T00:15:04.874Z,13.02
2024-05-09T00:20:17.872Z,15.77
2024-05-09T00:25:30.219Z,14.10
2024-05-09T00:30:42.560Z,14.73
2024-05-09T00:35:48.569Z,17.27
2024-05-09T00:40:54.799Z,20.02
2024-05-09T00:46:03.719Z,11.88
2024-05-09T00:51:10.315Z,13.32
2024-05-09T00:56:17.511Z,13.80
2024-05-09T01:01:28.299Z,9.75
2024-05-09T01:06:33.653Z,12.23
2024-05-09T01:11:40.164Z,10.13
2024-05-09T01:16:48.553Z,11.52
2024-05-09T01:21:54.020Z,12.48
2024-05-09T01:27:02.477Z,11.43
2024-05-09T01:32:08.814Z,13.70
2024-05-09T01:37:14.312Z,12.00
2024-05-09T01:42:22.753Z,8.75
2024-05-09T01:47:28.369Z,8.70
2024-05-09T01:52:39.438Z,14.23
2024-05-09T01:57:47.656Z,8.68
2024-05-09T02:02:53.783Z,7.60
2024-05-09T02:07:59.326Z,8.02
2024-05-09T02:13:08.712Z,10.32
2024-05-09T02:18:14.390Z,17.55
2024-05-09T02:23:21.206Z,19.48
2024-05-09T02:28:29.530Z,13.75
2024-05-09T02:33:35.230Z,16.95
2024-05-09T02:38:41.110Z,17.90
2024-05-09T02:43:49.378Z,8.52
2024-05-09T02:48:55.024Z,12.70
2024-05-09T02:54:00.363Z,14.27
2024-05-09T02:59:08.394Z,22.40
2024-05-09T03:04:13.866Z,11.50
2024-05-09T03:09:19.220Z,12.00
2024-05-09T03:14:27.639Z,22.00
2024-05-09T03:19:33.143Z,19.55
2024-05-09T03:24:40.950Z,14.98
2024-05-09T03:29:49.149Z,17.10
2024-05-09T03:34:54.676Z,24.42
2024-05-09T03:40:00.282Z,12.75
2024-05-09T03:45:08.915Z,14.93
2024-05-09T03:50:22.002Z,22.55
2024-05-09T03:55:34.380Z,15.52
2024-05-09T04:00:45.169Z,18.25
2024-05-09T04:05:50.467Z,17.23
2024-05-09T04:10:56.021Z,28.75
2024-05-09T04:16:04.271Z,39.50
2024-05-09T04:21:10.252Z,28.63
2024-05-09T04:26:15.708Z,29.20
2024-05-09T04:31:23.868Z,20.27
2024-05-09T04:36:29.335Z,61.42
2024-05-09T04:41:34.748Z,42.67
2024-05-09T04:46:43.019Z,23.27
2024-05-09T04:51:48.533Z,37.67
2024-05-09T04:56:54.024Z,36.38
2024-05-09T05:02:02.290Z,29.20
2024-05-09T05:07:07.970Z,41.40
2024-05-09T05:12:34.445Z,71.03
2024-05-09T05:17:42.902Z,81.72
2024-05-09T05:22:48.494Z,53.55
2024-05-09T05:27:56.080Z,21.63
2024-05-09T05:33:04.505Z,13.05
2024-05-09T05:38:11.954Z,32.10
2024-05-09T05:43:21.227Z,21.48
2024-05-09T05:48:29.573Z,19.98
2024-05-09T05:53:36.275Z,11.85
2024-05-09T05:58:43.588Z,17.30
2024-05-09T06:03:51.912Z,18.40
2024-05-09T06:08:58.625Z,51.90
2024-05-09T06:14:05.746Z,35.28
2024-05-09T06:19:14.138Z,28.35
2024-05-09T06:24:19.606Z,14.43
2024-05-09T06:29:25.210Z,21.58
2024-05-09T06:34:33.565Z,15.40
2024-05-09T06:39:42.108Z,17.65
2024-05-09T06:44:47.584Z,16.98
2024-05-09T06:49:55.802Z,16.77
2024-05-09T06:55:01.265Z,70.10
2024-05-09T07:00:10.293Z,20.58
2024-05-09T07:05:20.805Z,17.77
2024-05-09T07:10:32.803Z,19.52
2024-05-09T07:15:41.266Z,14.82
2024-05-09T07:20:50.665Z,12.52
2024-05-09T07:25:57.996Z,12.48
2024-05-09T07:31:03.652Z,13.55
2024-05-09T07:36:12.486Z,16.25
2024-05-09T07:41:19.504Z,14.77
2024-05-09T07:47:20.272Z,11.82
2024-05-09T07:53:21.165Z,9.57
2024-05-09T07:57:19.144Z,11.07
2024-05-09T08:02:24.975Z,10.98
2024-05-09T08:07:35.553Z,11.25
2024-05-09T08:12:41.112Z,9.23
2024-05-09T08:17:46.770Z,10.45
2024-05-09T08:22:55.222Z,10.93
2024-05-09T08:28:01.037Z,10.52
2024-05-09T08:33:08.038Z,8.82
2024-05-09T08:38:16.625Z,7.50
2024-05-09T08:43:23.217Z,11.88
2024-05-09T08:48:29.790Z,9.68
2024-05-09T08:53:43.947Z,6.18
2024-05-09T08:59:04.674Z,7.18
2024-05-09T09:04:13.647Z,5.78
2024-05-09T09:09:52.726Z,6.75
2024-05-09T09:15:04.515Z,17.75
2024-05-09T09:20:16.435Z,9.45
2024-05-09T09:25:32.101Z,9.68
2024-05-09T09:30:42.185Z,8.63
2024-05-09T09:36:05.009Z,4.85
2024-05-09T09:41:26.417Z,6.15
2024-05-09T09:46:34.485Z,7.05
2024-05-09T09:51:44.022Z,5.45
2024-05-09T09:56:54.389Z,10.15
2024-05-09T10:02:00.277Z,6.35
2024-05-09T10:07:11.653Z,6.97
2024-05-09T10:12:24.656Z,7.07
2024-05-09T10:17:32.411Z,9.02
2024-05-09T10:22:38.208Z,8.27
2024-05-09T10:27:46.804Z,4.70
2024-05-09T10:32:56.812Z,4.63
2024-05-09T10:38:09.178Z,4.95
2024-05-09T10:43:22.954Z,10.57
2024-05-09T10:48:30.227Z,3.05
2024-05-09T10:53:57.178Z,6.13
2024-05-09T10:59:06.986Z,5.03
2024-05-09T11:04:14.272Z,3.55
2024-05-09T11:09:27.755Z,1.88
2024-05-09T11:14:42.298Z,3.10
2024-05-09T11:19:54.087Z,8.95
2024-05-09T11:25:00.956Z,2.22
2024-05-09T11:35:30.626Z,7.50
2024-05-09T11:40:36.154Z,2.15
2024-05-09T11:45:44.400Z,6.97
2024-05-09T11:50:49.878Z,2.33
2024-05-09T11:55:55.457Z,3.17
2024-05-09T12:01:04.874Z,2.75
2024-05-09T12:06:10.250Z,4.30
2024-05-09T12:11:16.862Z,4.22
2024-05-09T12:16:25.176Z,3.15
2024-05-09T12:21:30.780Z,4.18
2024-05-09T12:26:36.275Z,3.03
2024-05-09T12:31:44.298Z,6.40
2024-05-09T12:36:49.773Z,4.40
2024-05-09T12:41:55.263Z,2.47
2024-05-09T12:47:03.319Z,4.07
2024-05-09T12:52:09.422Z,3.28
2024-05-09T12:57:15.010Z,2.53
2024-05-09T13:02:23.297Z,4.10
2024-05-09T13:07:28.898Z,2.40
2024-05-09T13:12:34.326Z,7.97
2024-05-09T13:17:42.640Z,6.68
2024-05-09T13:22:49.315Z,2.15
2024-05-09T13:27:55.021Z,4.07
2024-05-09T13:33:03.346Z,3.17
2024-05-09T13:38:09.162Z,6.10
2024-05-09T13:43:15.170Z,7.10
2024-05-09T13:48:23.594Z,1.90
2024-05-09T13:53:29.195Z,2.85
2024-05-09T13:58:34.685Z,5.22
2024-05-09T14:03:43.323Z,8.85
2024-05-09T14:08:49.163Z,2.05
2024-05-09T14:13:54.526Z,4.18
2024-05-09T14:19:03.558Z,4.03
2024-05-09T14:24:11.815Z,2.10
2024-05-09T14:29:18.481Z,3.78
2024-05-09T14:34:27.497Z,5.35
2024-05-09T14:39:36.003Z,2.92
2024-05-09T14:44:41.385Z,2.53
2024-05-09T14:49:52.539Z,5.60
2024-05-09T14:55:00.737Z,7.10
2024-05-09T15:00:16.974Z,3.40
2024-05-09T15:05:29.434Z,3.83
2024-05-09T15:10:36.613Z,2.97
2024-05-09T15:15:45.154Z,2.58
2024-05-09T15:20:56.574Z,3.42
2024-05-09T15:26:02.166Z,3.92
2024-05-09T15:31:07.865Z,4.07
2024-05-09T15:36:16.822Z,4.22
2024-05-09T15:41:25.621Z,3.22
2024-05-09T15:46:31.002Z,3.47
2024-05-09T15:51:42.499Z,4.28
2024-05-09T15:56:51.220Z,4.13
2024-05-09T16:01:57.376Z,2.97
2024-05-09T16:07:05.537Z,2.45
2024-05-09T16:12:11.899Z,2.15
2024-05-09T16:17:17.417Z,2.13
2024-05-09T16:22:25.481Z,4.53
2024-05-09T16:27:31.353Z,3.30
2024-05-09T16:32:36.972Z,4.10
2024-05-09T16:37:45.236Z,2.40
2024-05-09T16:42:53.829Z,5.32
2024-05-09T16:47:59.687Z,3.90
2024-05-09T16:53:08.915Z,5.20
2024-05-09T16:58:15.053Z,2.53
2024-05-09T17:03:21.509Z,4.50
2024-05-09T17:08:29.580Z,5.90
2024-05-09T17:13:39.437Z,3.88
2024-05-09T17:18:46.534Z,2.25
2024-05-09T17:23:55.973Z,4.10
2024-05-09T17:29:01.714Z,2.95
2024-05-09T17:34:07.276Z,2.42
2024-05-09T17:39:15.767Z,2.25
2024-05-09T17:44:21.317Z,6.00
2024-05-09T17:49:27.015Z,3.15
2024-05-09T17:54:35.970Z,3.53
2024-05-09T17:59:41.559Z,3.40
2024-05-09T18:04:47.127Z,3.88
2024-05-09T18:09:55.245Z,2.40
2024-05-09T18:15:00.679Z,2.55
2024-05-09T18:20:08.976Z,7.63
2024-05-09T18:25:17.604Z,1.98
2024-05-09T18:30:28.301Z,3.70
2024-05-09T18:35:39.888Z,2.92
2024-05-09T18:40:49.389Z,2.50
2024-05-09T18:45:55.449Z,2.45
2024-05-09T18:51:01.068Z,2.30
2024-05-09T18:56:10.529Z,2.00
2024-05-09T19:01:16.249Z,3.67
2024-05-09T19:06:24.610Z,4.50
2024-05-09T19:11:32.941Z,2.63
2024-05-09T19:16:39.212Z,2.90
2024-05-09T19:21:44.686Z,2.75
2024-05-09T19:26:53.242Z,4.05
2024-05-09T19:31:59.061Z,3.83
2024-05-09T19:37:04.594Z,2.38
2024-05-09T19:42:12.807Z,3.40
2024-05-09T19:47:18.371Z,9.43
2024-05-09T19:52:23.762Z,4.30
2024-05-09T19:57:31.990Z,3.72
2024-05-09T20:02:37.587Z,3.58
2024-05-09T20:07:43.368Z,4.40
2024-05-09T20:12:51.638Z,6.55
2024-05-09T20:17:58.067Z,5.22
2024-05-09T20:23:04.041Z,4.72
2024-05-09T20:28:12.650Z,3.40
2024-05-09T20:33:18.256Z,3.95
2024-05-09T20:38:23.666Z,7.35
2024-05-09T20:43:32.025Z,4.35
2024-05-09T20:48:37.716Z,6.88
2024-05-09T20:53:45.157Z,5.28
2024-05-09T20:58:53.270Z,6.47
2024-05-09T21:03:58.859Z,6.45
2024-05-09T21:09:04.522Z,4.90
2024-05-09T21:14:12.671Z,9.18
2024-05-09T21:19:18.234Z,5.78
2024-05-09T21:24:23.667Z,5.03
2024-05-09T21:29:32.845Z,12.43
2024-05-09T21:34:38.359Z,4.13
2024-05-09T21:39:46.846Z,5.18
2024-05-09T21:44:54.940Z,5.53
2024-05-09T21:50:03.718Z,5.15
2024-05-09T21:55:10.458Z,7.38
2024-05-09T22:00:28.945Z,5.45
2024-05-09T22:05:43.849Z,8.07
2024-05-09T22:10:49.514Z,7.57
2024-05-09T22:15:58.518Z,8.27
2024-05-09T22:21:04.190Z,7.18
2024-05-09T22:26:09.907Z,7.18
2024-05-09T22:31:18.783Z,7.93
2024-05-09T22:36:26.150Z,9.40
2024-05-09T22:41:32.195Z,6.03
2024-05-09T22:46:42.264Z,6.70
2024-05-09T22:51:47.779Z,5.45
2024-05-09T22:56:53.208Z,8.43
2024-05-09T23:02:10.573Z,6.30
2024-05-09T23:07:16.997Z,7.10
2024-05-09T23:12:23.528Z,5.03
2024-05-09T23:17:32.770Z,6.72
2024-05-09T23:22:38.370Z,6.72
2024-05-09T23:27:43.919Z,5.45
2024-05-09T23:32:52.094Z,5.90
2024-05-09T23:37:57.708Z,5.35
2024-05-09T23:43:03.322Z,7.30
2024-05-09T23:48:12.440Z,6.75
2024-05-09T23:53:18.003Z,3.95
2024-05-09T23:58:23.365Z,7.45
